createdAt,value
2019-03-11T00:02:47.960Z,85.89
2019-03-11T00:06:50.441Z,85.91
2019-03-11T00:10:53.143Z,86.09
2019-03-11T00:14:55.849Z,85.92
2019-03-11T00:18:58.587Z,85.96
2019-03-11T00:23:01.224Z,86.16
2019-03-11T00:27:05.090Z,86.28
2019-03-11T00:31:07.778Z,86.54
2019-03-11T00:35:10.409Z,86.85
2019-03-11T00:39:12.839Z,86.99
2019-03-11T00:43:15.495Z,87.14
2019-03-11T00:47:18.350Z,87.17
2019-03-11T00:51:20.850Z,87.23
2019-03-11T00:55:23.312Z,87.36
2019-03-11T00:59:25.955Z,87.43
2019-03-11T01:03:28.394Z,87.48
2019-03-11T01:07:31.034Z,87.56
2019-03-11T01:11:33.451Z,87.79
2019-03-11T01:15:35.987Z,87.66
2019-03-11T01:19:38.422Z,87.69
2019-03-11T01:23:41.139Z,87.58
2019-03-11T01:27:43.661Z,87.58
2019-03-11T01:31:46.162Z,87.93
2019-03-11T01:35:48.682Z,87.93
2019-03-11T01:39:51.342Z,88.04
2019-03-11T01:43:53.772Z,88.29
2019-03-11T01:47:56.616Z,88.25
2019-03-11T01:51:59.112Z,87.92
2019-03-11T01:56:01.608Z,88.01
2019-03-11T02:00:05.017Z,88.06
2019-03-11T02:04:08.551Z,88.03
2019-03-11T02:08:11.235Z,88.45
2019-03-11T02:12:13.791Z,88.35
2019-03-11T02:16:16.582Z,88.35
2019-03-11T02:20:19.348Z,88.39
2019-03-11T02:24:21.784Z,88.36
2019-03-11T02:28:24.260Z,88.37
2019-03-11T02:32:28.670Z,88.49
2019-03-11T02:36:30.886Z,88.80
2019-03-11T02:40:34.589Z,88.80
2019-03-11T02:44:37.105Z,88.83
2019-03-11T02:48:39.674Z,88.87
2019-03-11T02:52:42.393Z,88.73
2019-03-11T02:56:44.860Z,88.73
2019-03-11T03:00:48.858Z,88.97
2019-03-11T03:05:01.931Z,88.56
2019-03-11T03:09:06.016Z,88.55
2019-03-11T03:13:08.752Z,88.53
2019-03-11T03:17:12.642Z,88.63
2019-03-11T03:21:15.160Z,88.52
2019-03-11T03:25:32.147Z,88.38
2019-03-11T03:29:21.891Z,88.42
2019-03-11T03:33:24.357Z,88.34
2019-03-11T03:37:27.809Z,88.25
2019-03-11T03:41:30.435Z,88.30
2019-03-11T03:45:35.722Z,88.21
2019-03-11T03:49:38.903Z,88.22
2019-03-11T03:53:41.560Z,88.09
2019-03-11T03:57:44.213Z,88.00
2019-03-11T04:01:46.662Z,88.08
2019-03-11T04:05:49.308Z,88.14
2019-03-11T04:09:51.726Z,88.08
2019-03-11T04:13:54.270Z,88.12
2019-03-11T04:17:56.962Z,88.02
2019-03-11T04:21:59.556Z,87.93
2019-03-11T04:26:02.192Z,87.86
2019-03-11T04:30:05.514Z,87.85
2019-03-11T04:34:07.954Z,87.93
2019-03-11T04:38:10.549Z,87.94
2019-03-11T04:42:12.972Z,87.91
2019-03-11T04:46:15.559Z,87.87
2019-03-11T04:50:18.661Z,87.71
2019-03-11T04:54:21.292Z,87.56
2019-03-11T04:58:23.719Z,87.47
2019-03-11T05:02:26.270Z,87.68
2019-03-11T05:06:28.701Z,87.79
2019-03-11T05:10:31.198Z,87.71
2019-03-11T05:14:33.630Z,87.48
2019-03-11T05:18:36.114Z,87.18
2019-03-11T05:22:38.733Z,87.00
2019-03-11T05:26:42.280Z,87.05
2019-03-11T05:30:44.857Z,86.66
2019-03-11T05:34:48.614Z,86.61
2019-03-11T05:38:51.040Z,86.32
2019-03-11T05:42:53.544Z,85.81
2019-03-11T05:46:56.032Z,85.64
2019-03-11T05:50:58.578Z,85.29
2019-03-11T05:55:02.200Z,85.42
2019-03-11T05:59:04.744Z,85.34
2019-03-11T06:03:07.143Z,85.34
2019-03-11T06:07:09.636Z,85.22
2019-03-11T06:11:12.065Z,85.21
2019-03-11T06:15:15.405Z,85.37
2019-03-11T06:19:17.835Z,85.10
2019-03-11T06:23:20.447Z,84.95
2019-03-11T06:27:22.883Z,84.64
2019-03-11T06:31:25.382Z,84.57
2019-03-11T06:35:27.863Z,84.45
2019-03-11T06:39:30.464Z,84.26
2019-03-11T06:43:33.114Z,84.18
2019-03-11T06:47:35.638Z,84.13
2019-03-11T06:51:38.232Z,83.70
2019-03-11T06:55:40.773Z,83.36
2019-03-11T06:59:44.418Z,82.15
2019-03-11T07:03:46.885Z,82.00
2019-03-11T07:07:49.375Z,81.15
2019-03-11T07:11:51.843Z,80.75
2019-03-11T07:15:54.267Z,80.52
2019-03-11T07:19:56.868Z,80.44
2019-03-11T07:24:00.679Z,79.95
2019-03-11T07:28:03.363Z,79.17
2019-03-11T07:32:05.828Z,79.20
2019-03-11T07:36:08.728Z,79.31
2019-03-11T07:40:11.360Z,78.83
2019-03-11T07:44:15.123Z,78.39
2019-03-11T07:48:17.753Z,78.60
2019-03-11T07:52:20.249Z,77.48
2019-03-11T07:56:22.767Z,77.44
2019-03-11T08:00:25.252Z,76.44
2019-03-11T08:04:27.658Z,76.76
2019-03-11T08:08:31.222Z,75.79
2019-03-11T08:12:33.659Z,75.27
2019-03-11T08:16:36.143Z,74.84
2019-03-11T08:20:38.562Z,75.17
2019-03-11T08:24:41.073Z,75.13
2019-03-11T08:28:43.508Z,74.32
2019-03-11T08:32:46.202Z,73.45
2019-03-11T08:36:49.874Z,73.26
2019-03-11T08:40:52.387Z,72.57
2019-03-11T08:44:54.789Z,73.27
2019-03-11T08:48:57.348Z,73.64
2019-03-11T08:53:00.089Z,72.57
2019-03-11T08:57:02.603Z,73.19
2019-03-11T09:01:06.422Z,73.05
2019-03-11T09:05:10.240Z,72.88
2019-03-11T09:09:14.504Z,72.26
2019-03-11T09:13:16.973Z,71.86
2019-03-11T09:17:19.392Z,70.99
2019-03-11T09:21:22.285Z,71.04
2019-03-11T09:25:24.822Z,70.20
2019-03-11T09:29:27.288Z,69.03
2019-03-11T09:33:29.689Z,69.04
2019-03-11T09:37:32.188Z,67.39
2019-03-11T09:41:34.704Z,66.65
2019-03-11T09:45:37.393Z,67.17
2019-03-11T09:49:39.836Z,66.59
2019-03-11T09:53:42.760Z,66.08
2019-03-11T09:57:45.300Z,67.58
2019-03-11T10:01:47.978Z,66.86
2019-03-11T10:05:50.361Z,68.04
2019-03-11T10:09:52.951Z,68.25
2019-03-11T10:13:55.401Z,68.70
2019-03-11T10:17:57.977Z,68.12
2019-03-11T10:22:00.379Z,66.18
2019-03-11T10:26:02.901Z,66.07
2019-03-11T10:30:06.496Z,66.60
2019-03-11T10:34:08.981Z,66.84
2019-03-11T10:38:11.480Z,68.26
2019-03-11T10:42:14.026Z,70.22
2019-03-11T10:46:16.571Z,71.05
2019-03-11T10:50:19.327Z,70.77
2019-03-11T10:54:21.759Z,71.81
2019-03-11T10:58:25.895Z,70.20
2019-03-11T11:02:28.416Z,70.06
2019-03-11T11:06:30.858Z,71.15
2019-03-11T11:10:33.276Z,72.47
2019-03-11T11:14:35.976Z,71.77
2019-03-11T11:18:38.738Z,70.33
2019-03-11T11:22:41.402Z,69.05
2019-03-11T11:26:43.916Z,69.46
2019-03-11T11:30:46.409Z,68.71
2019-03-11T11:34:49.947Z,68.62
2019-03-11T11:38:52.755Z,69.36
2019-03-11T11:42:55.302Z,69.03
2019-03-11T11:46:57.837Z,68.57
2019-03-11T11:51:00.225Z,68.17
2019-03-11T11:55:02.731Z,66.28
2019-03-11T11:59:05.266Z,67.96
2019-03-11T12:03:09.602Z,67.70
2019-03-11T12:07:12.307Z,68.69
2019-03-11T12:11:14.770Z,68.21
2019-03-11T12:15:17.499Z,69.06
2019-03-11T12:19:21.431Z,68.89
2019-03-11T12:23:24.204Z,69.14
2019-03-11T12:27:26.885Z,67.72
2019-03-11T12:31:29.581Z,68.76
2019-03-11T12:35:33.579Z,67.19
2019-03-11T12:39:36.129Z,64.87
2019-03-11T12:43:38.588Z,65.91
2019-03-11T12:47:41.096Z,66.61
2019-03-11T12:51:49.674Z,66.69
2019-03-11T12:55:48.942Z,67.27
2019-03-11T12:59:51.488Z,66.16
2019-03-11T13:03:53.912Z,67.04
2019-03-11T13:07:58.298Z,67.25
2019-03-11T13:12:00.832Z,69.65
2019-03-11T13:16:03.648Z,70.71
2019-03-11T13:20:08.788Z,70.67
2019-03-11T13:24:11.300Z,72.43
2019-03-11T13:28:13.748Z,72.62
2019-03-11T13:32:16.278Z,73.54
2019-03-11T13:36:19.152Z,73.67
2019-03-11T13:40:21.694Z,73.54
2019-03-11T13:44:24.245Z,73.94
2019-03-11T13:48:26.750Z,73.59
2019-03-11T13:52:29.303Z,72.77
2019-03-11T13:56:31.834Z,72.23
2019-03-11T14:00:34.287Z,71.78
2019-03-11T14:04:36.970Z,71.48
2019-03-11T14:08:39.644Z,71.06
2019-03-11T14:12:42.472Z,70.24
2019-03-11T14:16:44.978Z,70.66
2019-03-11T14:20:47.500Z,71.37
2019-03-11T14:24:50.186Z,73.96
2019-03-11T14:28:52.766Z,75.96
2019-03-11T14:32:55.431Z,77.14
2019-03-11T14:36:57.923Z,77.17
2019-03-11T14:41:00.380Z,76.78
2019-03-11T14:45:02.962Z,76.33
2019-03-11T14:49:05.696Z,76.39
2019-03-11T14:53:08.684Z,76.28
2019-03-11T14:57:11.420Z,75.48
2019-03-11T15:01:13.902Z,75.17
2019-03-11T15:05:17.739Z,74.26
2019-03-11T15:09:20.525Z,74.16
2019-03-11T15:13:24.846Z,74.05
2019-03-11T15:17:28.761Z,73.88
2019-03-11T15:21:31.420Z,71.04
2019-03-11T15:25:34.086Z,69.18
2019-03-11T15:29:36.615Z,71.28
2019-03-11T15:33:41.134Z,72.12
2019-03-11T15:37:43.746Z,72.67
2019-03-11T15:41:49.413Z,73.27
2019-03-11T15:45:51.857Z,73.94
2019-03-11T15:49:54.399Z,74.02
2019-03-11T15:53:56.855Z,75.31
2019-03-11T15:57:59.391Z,75.68
2019-03-11T16:02:02.042Z,76.33
2019-03-11T16:06:04.813Z,76.47
2019-03-11T16:10:16.382Z,76.91
2019-03-11T16:14:13.017Z,77.39
2019-03-11T16:18:15.560Z,77.94
2019-03-11T16:22:23.263Z,77.76
2019-03-11T16:26:22.715Z,78.29
2019-03-11T16:30:25.495Z,78.28
2019-03-11T16:34:30.316Z,79.34
2019-03-11T16:38:33.329Z,79.97
2019-03-11T16:42:36.129Z,79.88
2019-03-11T16:46:40.664Z,80.98
2019-03-11T16:50:43.411Z,81.03
2019-03-11T16:54:45.977Z,82.21
2019-03-11T16:58:48.441Z,81.42
2019-03-11T17:02:51.132Z,81.70
2019-03-11T17:06:53.921Z,81.65
2019-03-11T17:10:57.517Z,81.95
2019-03-11T17:15:00.008Z,82.63
2019-03-11T17:19:02.925Z,82.90
2019-03-11T17:23:05.537Z,83.18
2019-03-11T17:27:08.031Z,83.07
2019-03-11T17:31:10.451Z,83.22
2019-03-11T17:35:13.131Z,83.36
2019-03-11T17:39:15.911Z,83.70
2019-03-11T17:43:20.032Z,83.83
2019-03-11T17:47:22.551Z,84.18
2019-03-11T17:51:25.482Z,84.78
2019-03-11T17:55:28.011Z,84.26
2019-03-11T17:59:30.739Z,84.55
2019-03-11T18:03:33.346Z,84.64
2019-03-11T18:07:35.917Z,84.15
2019-03-11T18:11:39.897Z,84.77
2019-03-11T18:15:42.889Z,85.01
2019-03-11T18:19:46.867Z,84.80
2019-03-11T18:23:49.404Z,85.17
2019-03-11T18:27:51.942Z,85.19
2019-03-11T18:32:01.967Z,84.94
2019-03-11T18:35:58.992Z,85.04
2019-03-11T18:40:01.490Z,84.82
2019-03-11T18:44:05.915Z,85.49
2019-03-11T18:48:08.639Z,85.57
2019-03-11T18:52:11.229Z,86.02
2019-03-11T18:56:13.791Z,85.98
2019-03-11T19:00:18.791Z,86.10
2019-03-11T19:04:21.343Z,86.24
2019-03-11T19:08:25.158Z,86.14
2019-03-11T19:12:27.865Z,86.20
2019-03-11T19:16:30.443Z,86.63
2019-03-11T19:20:35.098Z,87.05
2019-03-11T19:24:37.625Z,86.88
2019-03-11T19:28:40.199Z,87.60
2019-03-11T19:32:42.692Z,87.00
2019-03-11T19:36:46.806Z,87.05
2019-03-11T19:40:49.416Z,86.88
2019-03-11T19:44:51.934Z,87.48
2019-03-11T19:48:54.407Z,87.15
2019-03-11T19:52:58.970Z,87.00
2019-03-11T19:57:01.223Z,87.77
2019-03-11T20:01:03.856Z,87.52
2019-03-11T20:05:07.148Z,87.74
2019-03-11T20:09:14.652Z,88.08
2019-03-11T20:13:17.621Z,88.20
2019-03-11T20:17:20.510Z,88.03
2019-03-11T20:21:25.112Z,87.87
2019-03-11T20:25:29.308Z,87.51
2019-03-11T20:29:33.926Z,87.79
2019-03-11T20:33:36.079Z,87.82
2019-03-11T20:37:38.602Z,87.89
2019-03-11T20:41:41.443Z,87.53
2019-03-11T20:45:43.946Z,87.48
2019-03-11T20:49:46.529Z,87.65
2019-03-11T20:53:48.999Z,88.69
2019-03-11T20:57:51.590Z,88.25
2019-03-11T21:01:54.094Z,88.05
2019-03-11T21:05:57.040Z,88.25
2019-03-11T21:09:59.530Z,87.69
2019-03-11T21:14:02.149Z,88.60
2019-03-11T21:18:04.799Z,88.60
2019-03-11T21:22:09.348Z,88.05
2019-03-11T21:26:12.076Z,88.17
2019-03-11T21:30:17.403Z,87.84
2019-03-11T21:34:21.264Z,87.84
2019-03-11T21:38:23.815Z,88.17
2019-03-11T21:42:27.483Z,87.30
2019-03-11T21:46:30.256Z,87.30
2019-03-11T21:50:32.840Z,87.55
2019-03-11T21:54:35.420Z,87.98
2019-03-11T21:58:38.039Z,87.98
2019-03-11T22:02:40.700Z,88.08
2019-03-11T22:06:43.281Z,88.05
2019-03-11T22:10:47.186Z,87.91
2019-03-11T22:14:49.488Z,88.62
2019-03-11T22:18:52.017Z,88.63
2019-03-11T22:22:54.703Z,88.78
2019-03-11T22:26:57.067Z,88.67
2019-03-11T22:30:59.428Z,88.25
2019-03-11T22:35:12.149Z,88.04
2019-03-11T22:39:06.847Z,88.03
2019-03-11T22:43:09.336Z,88.14
2019-03-11T22:47:11.818Z,87.87
2019-03-11T22:51:14.350Z,88.03
2019-03-11T22:55:17.399Z,88.55
2019-03-11T22:59:21.024Z,88.25
2019-03-11T23:03:24.338Z,87.94
2019-03-11T23:07:26.665Z,88.03
2019-03-11T23:11:28.948Z,87.84
2019-03-11T23:15:31.533Z,87.80
2019-03-11T23:19:33.787Z,87.90
2019-03-11T23:23:36.648Z,87.64
2019-03-11T23:27:38.981Z,87.85
2019-03-11T23:31:41.336Z,87.62
2019-03-11T23:35:43.701Z,88.08
2019-03-11T23:39:46.070Z,88.43
2019-03-11T23:43:48.316Z,87.94
2019-03-11T23:47:50.692Z,87.93
2019-03-11T23:51:53.033Z,87.61
2019-03-11T23:55:55.408Z,87.54
2019-03-11T23:59:57.690Z,87.56
